sensor_id;sensor_type;location;lat;lon;timestamp;P1;durP1;ratioP1;P2;durP2;ratioP2
43118;SDS011;28729;49.838;8.650;2023-06-22T00:02:56;11.60;;;7.63;;
43118;SDS011;28729;49.838;8.650;2023-06-22T00:06:58;12.07;;;7.50;;
43118;SDS011;28729;49.838;8.650;2023-06-22T00:11:00;10.63;;;7.20;;
43118;SDS011;28729;49.838;8.650;2023-06-22T00:15:02;11.52;;;7.72;;
43118;SDS011;28729;49.838;8.650;2023-06-22T00:19:05;9.40;;;7.07;;
43118;SDS011;28729;49.838;8.650;2023-06-22T00:23:06;11.33;;;7.37;;
43118;SDS011;28729;49.838;8.650;2023-06-22T00:27:11;12.00;;;6.95;;
43118;SDS011;28729;49.838;8.650;2023-06-22T00:31:13;9.77;;;7.23;;
43118;SDS011;28729;49.838;8.650;2023-06-22T00:35:15;10.57;;;8.38;;
43118;SDS011;28729;49.838;8.650;2023-06-22T00:39:17;10.53;;;8.23;;
43118;SDS011;28729;49.838;8.650;2023-06-22T00:43:18;11.70;;;8.60;;
43118;SDS011;28729;49.838;8.650;2023-06-22T00:47:20;12.43;;;9.27;;
43118;SDS011;28729;49.838;8.650;2023-06-22T00:55:26;13.52;;;9.40;;
43118;SDS011;28729;49.838;8.650;2023-06-22T00:59:28;12.50;;;9.20;;
43118;SDS011;28729;49.838;8.650;2023-06-22T01:03:30;16.48;;;9.82;;
43118;SDS011;28729;49.838;8.650;2023-06-22T01:07:34;16.33;;;10.60;;
43118;SDS011;28729;49.838;8.650;2023-06-22T01:11:42;16.17;;;10.27;;
43118;SDS011;28729;49.838;8.650;2023-06-22T01:16:00;13.32;;;9.90;;
43118;SDS011;28729;49.838;8.650;2023-06-22T01:20:05;13.63;;;10.43;;
43118;SDS011;28729;49.838;8.650;2023-06-22T01:24:26;14.93;;;12.00;;
43118;SDS011;28729;49.838;8.650;2023-06-22T01:32:51;16.77;;;12.02;;
43118;SDS011;28729;49.838;8.650;2023-06-22T01:36:55;14.52;;;10.43;;
43118;SDS011;28729;49.838;8.650;2023-06-22T01:40:59;16.70;;;11.18;;
43118;SDS011;28729;49.838;8.650;2023-06-22T01:45:03;15.02;;;11.15;;
43118;SDS011;28729;49.838;8.650;2023-06-22T01:49:08;15.75;;;11.68;;
43118;SDS011;28729;49.838;8.650;2023-06-22T01:53:10;15.68;;;12.10;;
43118;SDS011;28729;49.838;8.650;2023-06-22T01:57:12;20.60;;;12.57;;
43118;SDS011;28729;49.838;8.650;2023-06-22T02:01:14;21.00;;;12.43;;
43118;SDS011;28729;49.838;8.650;2023-06-22T02:05:21;17.33;;;12.63;;
43118;SDS011;28729;49.838;8.650;2023-06-22T02:09:28;17.80;;;12.88;;
43118;SDS011;28729;49.838;8.650;2023-06-22T02:13:31;20.85;;;13.00;;
43118;SDS011;28729;49.838;8.650;2023-06-22T02:21:36;16.47;;;11.53;;
43118;SDS011;28729;49.838;8.650;2023-06-22T02:29:41;17.50;;;11.45;;
43118;SDS011;28729;49.838;8.650;2023-06-22T02:33:43;18.15;;;12.05;;
43118;SDS011;28729;49.838;8.650;2023-06-22T02:37:47;17.70;;;12.45;;
43118;SDS011;28729;49.838;8.650;2023-06-22T02:41:53;15.52;;;11.98;;
43118;SDS011;28729;49.838;8.650;2023-06-22T02:45:56;16.45;;;12.23;;
43118;SDS011;28729;49.838;8.650;2023-06-22T02:49:58;18.83;;;12.37;;
43118;SDS011;28729;49.838;8.650;2023-06-22T02:54:00;19.23;;;12.10;;
43118;SDS011;28729;49.838;8.650;2023-06-22T02:58:03;16.10;;;12.25;;
43118;SDS011;28729;49.838;8.650;2023-06-22T03:02:09;19.35;;;13.80;;
43118;SDS011;28729;49.838;8.650;2023-06-22T03:06:11;17.65;;;13.40;;
43118;SDS011;28729;49.838;8.650;2023-06-22T03:10:16;21.17;;;12.98;;
43118;SDS011;28729;49.838;8.650;2023-06-22T03:14:18;19.13;;;12.63;;
43118;SDS011;28729;49.838;8.650;2023-06-22T03:18:20;21.30;;;12.43;;
43118;SDS011;28729;49.838;8.650;2023-06-22T03:22:24;20.48;;;12.85;;
43118;SDS011;28729;49.838;8.650;2023-06-22T03:26:25;21.70;;;14.20;;
43118;SDS011;28729;49.838;8.650;2023-06-22T03:30:28;19.90;;;13.02;;
43118;SDS011;28729;49.838;8.650;2023-06-22T03:34:30;18.88;;;13.95;;
43118;SDS011;28729;49.838;8.650;2023-06-22T03:38:35;18.75;;;13.45;;
43118;SDS011;28729;49.838;8.650;2023-06-22T03:42:36;19.03;;;13.20;;
43118;SDS011;28729;49.838;8.650;2023-06-22T03:46:38;19.40;;;12.60;;
43118;SDS011;28729;49.838;8.650;2023-06-22T03:50:40;21.23;;;14.20;;
43118;SDS011;28729;49.838;8.650;2023-06-22T03:54:42;19.20;;;13.73;;
43118;SDS011;28729;49.838;8.650;2023-06-22T03:58:44;18.35;;;13.55;;
43118;SDS011;28729;49.838;8.650;2023-06-22T04:02:46;18.52;;;13.48;;
43118;SDS011;28729;49.838;8.650;2023-06-22T04:06:48;19.03;;;13.50;;
43118;SDS011;28729;49.838;8.650;2023-06-22T04:10:50;17.60;;;13.35;;
43118;SDS011;28729;49.838;8.650;2023-06-22T04:14:51;20.73;;;14.13;;
43118;SDS011;28729;49.838;8.650;2023-06-22T04:18:53;18.97;;;13.13;;
43118;SDS011;28729;49.838;8.650;2023-06-22T04:22:55;16.30;;;11.80;;
43118;SDS011;28729;49.838;8.650;2023-06-22T04:26:57;21.97;;;13.60;;
43118;SDS011;28729;49.838;8.650;2023-06-22T04:31:02;18.23;;;13.00;;
43118;SDS011;28729;49.838;8.650;2023-06-22T04:35:05;18.35;;;12.70;;
43118;SDS011;28729;49.838;8.650;2023-06-22T04:39:12;16.48;;;12.80;;
43118;SDS011;28729;49.838;8.650;2023-06-22T04:43:13;17.70;;;12.75;;
43118;SDS011;28729;49.838;8.650;2023-06-22T04:47:15;17.30;;;12.70;;
43118;SDS011;28729;49.838;8.650;2023-06-22T04:51:17;18.63;;;13.70;;
43118;SDS011;28729;49.838;8.650;2023-06-22T04:55:23;16.95;;;12.55;;
43118;SDS011;28729;49.838;8.650;2023-06-22T04:59:27;19.88;;;13.63;;
43118;SDS011;28729;49.838;8.650;2023-06-22T05:03:32;17.60;;;13.25;;
43118;SDS011;28729;49.838;8.650;2023-06-22T05:07:35;19.98;;;13.35;;
43118;SDS011;28729;49.838;8.650;2023-06-22T05:11:37;19.08;;;13.15;;
43118;SDS011;28729;49.838;8.650;2023-06-22T05:15:39;18.45;;;13.20;;
43118;SDS011;28729;49.838;8.650;2023-06-22T05:19:41;19.00;;;13.97;;
43118;SDS011;28729;49.838;8.650;2023-06-22T05:23:46;19.98;;;13.27;;
43118;SDS011;28729;49.838;8.650;2023-06-22T05:27:48;18.57;;;13.73;;
43118;SDS011;28729;49.838;8.650;2023-06-22T05:31:53;20.25;;;13.73;;
43118;SDS011;28729;49.838;8.650;2023-06-22T05:35:55;18.75;;;13.30;;
43118;SDS011;28729;49.838;8.650;2023-06-22T05:39:56;20.48;;;13.00;;
43118;SDS011;28729;49.838;8.650;2023-06-22T05:43:59;17.27;;;12.02;;
43118;SDS011;28729;49.838;8.650;2023-06-22T05:48:02;17.77;;;13.35;;
43118;SDS011;28729;49.838;8.650;2023-06-22T05:52:05;18.33;;;12.30;;
43118;SDS011;28729;49.838;8.650;2023-06-22T05:56:07;17.15;;;12.00;;
43118;SDS011;28729;49.838;8.650;2023-06-22T06:00:12;18.02;;;12.40;;
43118;SDS011;28729;49.838;8.650;2023-06-22T06:04:20;14.85;;;10.70;;
43118;SDS011;28729;49.838;8.650;2023-06-22T06:08:22;15.05;;;11.43;;
43118;SDS011;28729;49.838;8.650;2023-06-22T06:12:26;14.35;;;10.50;;
43118;SDS011;28729;49.838;8.650;2023-06-22T06:16:28;18.87;;;11.80;;
43118;SDS011;28729;49.838;8.650;2023-06-22T06:20:29;14.50;;;10.97;;
43118;SDS011;28729;49.838;8.650;2023-06-22T06:28:35;15.00;;;9.98;;
43118;SDS011;28729;49.838;8.650;2023-06-22T06:32:38;14.10;;;10.30;;
43118;SDS011;28729;49.838;8.650;2023-06-22T06:36:43;19.02;;;10.75;;
43118;SDS011;28729;49.838;8.650;2023-06-22T06:40:45;12.98;;;10.52;;
43118;SDS011;28729;49.838;8.650;2023-06-22T06:44:49;16.95;;;11.32;;
43118;SDS011;28729;49.838;8.650;2023-06-22T06:48:51;13.73;;;9.93;;
43118;SDS011;28729;49.838;8.650;2023-06-22T06:52:53;14.05;;;10.93;;
43118;SDS011;28729;49.838;8.650;2023-06-22T06:56:58;14.98;;;10.23;;
43118;SDS011;28729;49.838;8.650;2023-06-22T07:01:02;13.57;;;9.55;;
43118;SDS011;28729;49.838;8.650;2023-06-22T07:05:05;16.10;;;11.30;;
43118;SDS011;28729;49.838;8.650;2023-06-22T07:09:07;19.52;;;10.63;;
43118;SDS011;28729;49.838;8.650;2023-06-22T07:13:09;13.70;;;10.55;;
43118;SDS011;28729;49.838;8.650;2023-06-22T07:17:11;15.02;;;10.80;;
43118;SDS011;28729;49.838;8.650;2023-06-22T07:21:17;15.55;;;10.88;;
43118;SDS011;28729;49.838;8.650;2023-06-22T07:25:18;13.98;;;10.75;;
43118;SDS011;28729;49.838;8.650;2023-06-22T07:29:23;14.50;;;9.70;;
43118;SDS011;28729;49.838;8.650;2023-06-22T07:33:26;14.07;;;10.43;;
43118;SDS011;28729;49.838;8.650;2023-06-22T07:37:30;14.90;;;11.20;;
43118;SDS011;28729;49.838;8.650;2023-06-22T07:41:34;13.77;;;10.77;;
43118;SDS011;28729;49.838;8.650;2023-06-22T07:45:37;16.20;;;10.82;;
43118;SDS011;28729;49.838;8.650;2023-06-22T07:49:42;13.93;;;11.05;;
43118;SDS011;28729;49.838;8.650;2023-06-22T07:57:49;14.27;;;10.93;;
43118;SDS011;28729;49.838;8.650;2023-06-22T08:01:54;13.90;;;10.20;;
43118;SDS011;28729;49.838;8.650;2023-06-22T08:05:57;14.18;;;10.52;;
43118;SDS011;28729;49.838;8.650;2023-06-22T08:10:03;12.57;;;10.10;;
43118;SDS011;28729;49.838;8.650;2023-06-22T08:14:06;16.88;;;10.52;;
43118;SDS011;28729;49.838;8.650;2023-06-22T08:18:08;14.00;;;10.25;;
43118;SDS011;28729;49.838;8.650;2023-06-22T08:22:12;12.43;;;10.52;;
43118;SDS011;28729;49.838;8.650;2023-06-22T08:26:17;14.13;;;10.23;;
43118;SDS011;28729;49.838;8.650;2023-06-22T08:30:18;16.63;;;10.35;;
43118;SDS011;28729;49.838;8.650;2023-06-22T08:34:21;13.88;;;9.63;;
43118;SDS011;28729;49.838;8.650;2023-06-22T08:38:26;11.45;;;9.60;;
43118;SDS011;28729;49.838;8.650;2023-06-22T08:42:29;11.50;;;9.82;;
43118;SDS011;28729;49.838;8.650;2023-06-22T08:46:31;12.40;;;9.70;;
43118;SDS011;28729;49.838;8.650;2023-06-22T08:50:35;12.85;;;9.88;;
43118;SDS011;28729;49.838;8.650;2023-06-22T08:54:39;13.05;;;8.75;;
43118;SDS011;28729;49.838;8.650;2023-06-22T08:58:41;15.40;;;9.95;;
43118;SDS011;28729;49.838;8.650;2023-06-22T09:02:43;11.75;;;10.13;;
43118;SDS011;28729;49.838;8.650;2023-06-22T09:06:47;10.95;;;9.45;;
43118;SDS011;28729;49.838;8.650;2023-06-22T09:10:50;10.75;;;8.75;;
43118;SDS011;28729;49.838;8.650;2023-06-22T09:14:53;10.25;;;8.88;;
43118;SDS011;28729;49.838;8.650;2023-06-22T09:18:56;15.65;;;9.32;;
43118;SDS011;28729;49.838;8.650;2023-06-22T09:22:58;12.60;;;8.75;;
43118;SDS011;28729;49.838;8.650;2023-06-22T09:31:01;11.80;;;9.57;;
43118;SDS011;28729;49.838;8.650;2023-06-22T09:35:05;10.75;;;8.93;;
43118;SDS011;28729;49.838;8.650;2023-06-22T09:39:10;12.27;;;8.30;;
43118;SDS011;28729;49.838;8.650;2023-06-22T09:43:12;11.80;;;8.55;;
43118;SDS011;28729;49.838;8.650;2023-06-22T09:47:18;14.32;;;9.52;;
43118;SDS011;28729;49.838;8.650;2023-06-22T09:51:22;15.13;;;8.52;;
43118;SDS011;28729;49.838;8.650;2023-06-22T09:55:27;9.55;;;8.27;;
43118;SDS011;28729;49.838;8.650;2023-06-22T09:59:30;11.63;;;9.00;;
43118;SDS011;28729;49.838;8.650;2023-06-22T10:03:33;12.10;;;8.68;;
43118;SDS011;28729;49.838;8.650;2023-06-22T10:07:36;11.48;;;8.85;;
43118;SDS011;28729;49.838;8.650;2023-06-22T10:11:44;10.90;;;8.57;;
43118;SDS011;28729;49.838;8.650;2023-06-22T10:15:46;11.90;;;8.18;;
43118;SDS011;28729;49.838;8.650;2023-06-22T10:19:53;10.25;;;8.70;;
43118;SDS011;28729;49.838;8.650;2023-06-22T10:23:55;12.55;;;8.68;;
43118;SDS011;28729;49.838;8.650;2023-06-22T10:27:57;12.27;;;9.00;;
43118;SDS011;28729;49.838;8.650;2023-06-22T10:32:01;12.88;;;8.68;;
43118;SDS011;28729;49.838;8.650;2023-06-22T10:36:03;11.35;;;8.38;;
43118;SDS011;28729;49.838;8.650;2023-06-22T10:40:06;12.05;;;9.15;;
43118;SDS011;28729;49.838;8.650;2023-06-22T10:44:11;12.90;;;8.98;;
43118;SDS011;28729;49.838;8.650;2023-06-22T10:48:17;10.85;;;8.25;;
43118;SDS011;28729;49.838;8.650;2023-06-22T10:52:20;12.32;;;9.25;;
43118;SDS011;28729;49.838;8.650;2023-06-22T10:56:25;13.50;;;8.52;;
43118;SDS011;28729;49.838;8.650;2023-06-22T11:00:29;12.70;;;9.07;;
43118;SDS011;28729;49.838;8.650;2023-06-22T11:04:34;11.50;;;9.20;;
43118;SDS011;28729;49.838;8.650;2023-06-22T11:08:37;12.45;;;9.45;;
43118;SDS011;28729;49.838;8.650;2023-06-22T11:12:44;11.18;;;9.90;;
43118;SDS011;28729;49.838;8.650;2023-06-22T11:16:47;14.35;;;9.82;;
43118;SDS011;28729;49.838;8.650;2023-06-22T11:20:50;12.73;;;10.15;;
43118;SDS011;28729;49.838;8.650;2023-06-22T11:24:54;11.40;;;9.77;;
43118;SDS011;28729;49.838;8.650;2023-06-22T11:28:56;12.73;;;9.45;;
43118;SDS011;28729;49.838;8.650;2023-06-22T11:33:00;13.48;;;10.02;;
43118;SDS011;28729;49.838;8.650;2023-06-22T11:37:03;13.05;;;9.77;;
43118;SDS011;28729;49.838;8.650;2023-06-22T11:41:07;13.52;;;9.45;;
43118;SDS011;28729;49.838;8.650;2023-06-22T11:45:10;11.13;;;8.50;;
43118;SDS011;28729;49.838;8.650;2023-06-22T11:49:13;11.38;;;9.60;;
43118;SDS011;28729;49.838;8.650;2023-06-22T11:53:17;13.88;;;10.32;;
43118;SDS011;28729;49.838;8.650;2023-06-22T11:57:21;12.27;;;9.27;;
43118;SDS011;28729;49.838;8.650;2023-06-22T12:01:24;12.32;;;9.15;;
43118;SDS011;28729;49.838;8.650;2023-06-22T12:05:27;13.00;;;8.85;;
43118;SDS011;28729;49.838;8.650;2023-06-22T12:09:29;10.35;;;8.88;;
43118;SDS011;28729;49.838;8.650;2023-06-22T12:13:31;11.80;;;8.82;;
43118;SDS011;28729;49.838;8.650;2023-06-22T12:17:34;13.82;;;9.73;;
43118;SDS011;28729;49.838;8.650;2023-06-22T12:21:42;10.95;;;9.30;;
43118;SDS011;28729;49.838;8.650;2023-06-22T12:25:48;12.52;;;9.27;;
43118;SDS011;28729;49.838;8.650;2023-06-22T12:29:53;11.45;;;9.15;;
43118;SDS011;28729;49.838;8.650;2023-06-22T12:33:57;13.07;;;10.10;;
43118;SDS011;28729;49.838;8.650;2023-06-22T12:38:01;12.50;;;9.23;;
43118;SDS011;28729;49.838;8.650;2023-06-22T12:42:08;14.13;;;9.52;;
43118;SDS011;28729;49.838;8.650;2023-06-22T12:46:12;12.63;;;8.95;;
43118;SDS011;28729;49.838;8.650;2023-06-22T12:50:13;11.30;;;8.63;;
43118;SDS011;28729;49.838;8.650;2023-06-22T12:54:16;13.93;;;8.90;;
43118;SDS011;28729;49.838;8.650;2023-06-22T12:58:18;13.75;;;8.73;;
43118;SDS011;28729;49.838;8.650;2023-06-22T13:02:22;12.98;;;8.85;;
43118;SDS011;28729;49.838;8.650;2023-06-22T13:06:24;9.05;;;7.90;;
43118;SDS011;28729;49.838;8.650;2023-06-22T13:10:31;12.98;;;7.57;;
43118;SDS011;28729;49.838;8.650;2023-06-22T13:14:34;13.38;;;7.65;;
43118;SDS011;28729;49.838;8.650;2023-06-22T13:18:36;11.02;;;6.90;;
43118;SDS011;28729;49.838;8.650;2023-06-22T13:22:40;10.23;;;6.88;;
43118;SDS011;28729;49.838;8.650;2023-06-22T13:26:44;12.25;;;7.25;;
43118;SDS011;28729;49.838;8.650;2023-06-22T13:30:48;13.55;;;7.18;;
43118;SDS011;28729;49.838;8.650;2023-06-22T13:34:53;14.20;;;6.93;;
43118;SDS011;28729;49.838;8.650;2023-06-22T13:38:56;11.00;;;6.97;;
43118;SDS011;28729;49.838;8.650;2023-06-22T13:42:58;16.33;;;6.65;;
43118;SDS011;28729;49.838;8.650;2023-06-22T13:47:00;10.80;;;6.03;;
43118;SDS011;28729;49.838;8.650;2023-06-22T13:51:02;11.25;;;6.47;;
43118;SDS011;28729;49.838;8.650;2023-06-22T13:55:04;15.57;;;6.40;;
43118;SDS011;28729;49.838;8.650;2023-06-22T13:59:09;15.50;;;6.70;;
43118;SDS011;28729;49.838;8.650;2023-06-22T14:03:14;15.23;;;5.95;;
43118;SDS011;28729;49.838;8.650;2023-06-22T14:07:17;14.82;;;5.95;;
43118;SDS011;28729;49.838;8.650;2023-06-22T14:11:21;13.02;;;6.05;;
43118;SDS011;28729;49.838;8.650;2023-06-22T14:15:25;13.38;;;5.32;;
43118;SDS011;28729;49.838;8.650;2023-06-22T14:19:27;12.65;;;5.35;;
43118;SDS011;28729;49.838;8.650;2023-06-22T14:23:29;13.52;;;5.72;;
43118;SDS011;28729;49.838;8.650;2023-06-22T14:27:33;11.80;;;5.82;;
43118;SDS011;28729;49.838;8.650;2023-06-22T14:31:35;10.65;;;5.90;;
43118;SDS011;28729;49.838;8.650;2023-06-22T14:35:39;10.30;;;5.15;;
43118;SDS011;28729;49.838;8.650;2023-06-22T14:39:41;12.68;;;6.07;;
43118;SDS011;28729;49.838;8.650;2023-06-22T14:43:46;13.50;;;7.03;;
43118;SDS011;28729;49.838;8.650;2023-06-22T14:47:49;11.90;;;5.78;;
43118;SDS011;28729;49.838;8.650;2023-06-22T14:51:52;9.70;;;5.97;;
43118;SDS011;28729;49.838;8.650;2023-06-22T14:55:56;10.65;;;5.82;;
43118;SDS011;28729;49.838;8.650;2023-06-22T15:00:00;8.38;;;5.70;;
43118;SDS011;28729;49.838;8.650;2023-06-22T15:04:08;13.48;;;6.10;;
43118;SDS011;28729;49.838;8.650;2023-06-22T15:08:10;12.60;;;6.40;;
43118;SDS011;28729;49.838;8.650;2023-06-22T15:12:12;11.82;;;6.13;;
43118;SDS011;28729;49.838;8.650;2023-06-22T15:16:15;15.35;;;6.43;;
43118;SDS011;28729;49.838;8.650;2023-06-22T15:20:18;10.35;;;5.60;;
43118;SDS011;28729;49.838;8.650;2023-06-22T15:24:20;10.73;;;6.75;;
43118;SDS011;28729;49.838;8.650;2023-06-22T15:28:25;10.43;;;6.35;;
43118;SDS011;28729;49.838;8.650;2023-06-22T15:32:27;11.18;;;5.88;;
43118;SDS011;28729;49.838;8.650;2023-06-22T15:36:30;15.95;;;6.57;;
43118;SDS011;28729;49.838;8.650;2023-06-22T15:40:32;18.75;;;6.55;;
43118;SDS011;28729;49.838;8.650;2023-06-22T15:44:35;9.52;;;5.93;;
43118;SDS011;28729;49.838;8.650;2023-06-22T15:48:38;12.85;;;6.50;;
43118;SDS011;28729;49.838;8.650;2023-06-22T15:52:43;12.15;;;6.93;;
43118;SDS011;28729;49.838;8.650;2023-06-22T15:56:51;14.85;;;6.90;;
43118;SDS011;28729;49.838;8.650;2023-06-22T16:00:54;15.02;;;7.20;;
43118;SDS011;28729;49.838;8.650;2023-06-22T16:04:57;12.50;;;6.70;;
43118;SDS011;28729;49.838;8.650;2023-06-22T16:09:01;13.70;;;6.85;;
43118;SDS011;28729;49.838;8.650;2023-06-22T16:13:05;12.65;;;5.93;;
43118;SDS011;28729;49.838;8.650;2023-06-22T16:17:08;15.10;;;7.18;;
43118;SDS011;28729;49.838;8.650;2023-06-22T16:25:14;13.93;;;6.80;;
43118;SDS011;28729;49.838;8.650;2023-06-22T16:33:19;9.98;;;5.60;;
43118;SDS011;28729;49.838;8.650;2023-06-22T16:37:22;13.60;;;4.88;;
43118;SDS011;28729;49.838;8.650;2023-06-22T16:41:25;11.02;;;4.75;;
43118;SDS011;28729;49.838;8.650;2023-06-22T16:45:30;12.30;;;5.25;;
43118;SDS011;28729;49.838;8.650;2023-06-22T16:49:34;12.55;;;5.25;;
43118;SDS011;28729;49.838;8.650;2023-06-22T16:53:38;14.85;;;6.10;;
43118;SDS011;28729;49.838;8.650;2023-06-22T16:57:41;11.25;;;6.10;;
43118;SDS011;28729;49.838;8.650;2023-06-22T17:01:48;13.70;;;5.70;;
43118;SDS011;28729;49.838;8.650;2023-06-22T17:05:58;12.43;;;5.78;;
43118;SDS011;28729;49.838;8.650;2023-06-22T17:10:02;23.77;;;7.60;;
43118;SDS011;28729;49.838;8.650;2023-06-22T17:14:05;20.55;;;6.95;;
43118;SDS011;28729;49.838;8.650;2023-06-22T17:18:08;17.15;;;8.02;;
43118;SDS011;28729;49.838;8.650;2023-06-22T17:22:10;18.63;;;8.93;;
43118;SDS011;28729;49.838;8.650;2023-06-22T17:30:17;21.30;;;7.97;;
43118;SDS011;28729;49.838;8.650;2023-06-22T17:34:26;18.30;;;8.95;;
43118;SDS011;28729;49.838;8.650;2023-06-22T17:38:30;18.60;;;7.85;;
43118;SDS011;28729;49.838;8.650;2023-06-22T17:42:32;19.13;;;7.87;;
43118;SDS011;28729;49.838;8.650;2023-06-22T17:46:34;24.58;;;10.30;;
43118;SDS011;28729;49.838;8.650;2023-06-22T17:50:43;18.15;;;7.63;;
43118;SDS011;28729;49.838;8.650;2023-06-22T17:54:45;14.05;;;6.45;;
43118;SDS011;28729;49.838;8.650;2023-06-22T17:58:52;10.35;;;5.60;;
43118;SDS011;28729;49.838;8.650;2023-06-22T18:02:54;10.38;;;5.32;;
43118;SDS011;28729;49.838;8.650;2023-06-22T18:06:57;12.73;;;5.40;;
43118;SDS011;28729;49.838;8.650;2023-06-22T18:11:03;13.48;;;6.07;;
43118;SDS011;28729;49.838;8.650;2023-06-22T18:15:26;20.70;;;6.47;;
43118;SDS011;28729;49.838;8.650;2023-06-22T18:19:30;10.90;;;5.63;;
43118;SDS011;28729;49.838;8.650;2023-06-22T18:23:36;14.70;;;6.25;;
43118;SDS011;28729;49.838;8.650;2023-06-22T18:27:38;11.77;;;5.28;;
43118;SDS011;28729;49.838;8.650;2023-06-22T18:31:44;10.77;;;6.00;;
43118;SDS011;28729;49.838;8.650;2023-06-22T18:35:46;10.65;;;5.18;;
43118;SDS011;28729;49.838;8.650;2023-06-22T18:39:53;16.23;;;6.82;;
43118;SDS011;28729;49.838;8.650;2023-06-22T18:43:58;10.05;;;5.70;;
43118;SDS011;28729;49.838;8.650;2023-06-22T18:48:04;12.93;;;6.05;;
43118;SDS011;28729;49.838;8.650;2023-06-22T18:56:13;14.23;;;5.30;;
43118;SDS011;28729;49.838;8.650;2023-06-22T19:00:17;11.80;;;5.57;;
43118;SDS011;28729;49.838;8.650;2023-06-22T19:04:19;12.57;;;6.00;;
43118;SDS011;28729;49.838;8.650;2023-06-22T19:08:22;12.77;;;4.82;;
43118;SDS011;28729;49.838;8.650;2023-06-22T19:12:25;7.88;;;4.35;;
43118;SDS011;28729;49.838;8.650;2023-06-22T19:16:30;13.87;;;5.27;;
43118;SDS011;28729;49.838;8.650;2023-06-22T19:20:32;10.93;;;4.90;;
43118;SDS011;28729;49.838;8.650;2023-06-22T19:24:48;9.77;;;4.47;;
43118;SDS011;28729;49.838;8.650;2023-06-22T19:28:55;8.55;;;4.20;;
43118;SDS011;28729;49.838;8.650;2023-06-22T19:33:01;7.18;;;4.55;;
43118;SDS011;28729;49.838;8.650;2023-06-22T19:37:13;8.57;;;4.10;;
43118;SDS011;28729;49.838;8.650;2023-06-22T19:41:20;12.10;;;4.28;;
43118;SDS011;28729;49.838;8.650;2023-06-22T19:45:23;9.18;;;4.32;;
43118;SDS011;28729;49.838;8.650;2023-06-22T19:49:26;10.40;;;4.07;;
43118;SDS011;28729;49.838;8.650;2023-06-22T19:53:28;8.60;;;4.30;;
43118;SDS011;28729;49.838;8.650;2023-06-22T19:57:33;10.32;;;4.03;;
43118;SDS011;28729;49.838;8.650;2023-06-22T20:01:38;9.60;;;4.15;;
43118;SDS011;28729;49.838;8.650;2023-06-22T20:05:42;8.55;;;3.50;;
43118;SDS011;28729;49.838;8.650;2023-06-22T20:09:45;9.10;;;3.28;;
43118;SDS011;28729;49.838;8.650;2023-06-22T20:14:06;5.93;;;3.42;;
43118;SDS011;28729;49.838;8.650;2023-06-22T20:18:09;15.03;;;2.40;;
43118;SDS011;28729;49.838;8.650;2023-06-22T20:22:12;3.28;;;1.45;;
43118;SDS011;28729;49.838;8.650;2023-06-22T20:26:13;4.67;;;1.30;;
43118;SDS011;28729;49.838;8.650;2023-06-22T20:30:19;1.73;;;0.80;;
43118;SDS011;28729;49.838;8.650;2023-06-22T20:34:24;1.63;;;1.00;;
43118;SDS011;28729;49.838;8.650;2023-06-22T20:38:26;2.95;;;1.00;;
43118;SDS011;28729;49.838;8.650;2023-06-22T20:42:30;2.42;;;0.90;;
43118;SDS011;28729;49.838;8.650;2023-06-22T20:46:33;3.83;;;1.45;;
43118;SDS011;28729;49.838;8.650;2023-06-22T20:50:35;2.50;;;1.10;;
43118;SDS011;28729;49.838;8.650;2023-06-22T20:58:40;3.50;;;1.40;;
43118;SDS011;28729;49.838;8.650;2023-06-22T21:02:42;4.53;;;1.10;;
43118;SDS011;28729;49.838;8.650;2023-06-22T21:06:45;3.00;;;1.23;;
43118;SDS011;28729;49.838;8.650;2023-06-22T21:10:47;1.73;;;0.80;;
43118;SDS011;28729;49.838;8.650;2023-06-22T21:14:49;2.25;;;0.93;;
43118;SDS011;28729;49.838;8.650;2023-06-22T21:18:52;1.13;;;0.70;;
43118;SDS011;28729;49.838;8.650;2023-06-22T21:22:54;5.90;;;1.23;;
43118;SDS011;28729;49.838;8.650;2023-06-22T21:26:56;2.73;;;1.00;;
43118;SDS011;28729;49.838;8.650;2023-06-22T21:35:00;2.08;;;1.30;;
43118;SDS011;28729;49.838;8.650;2023-06-22T21:39:04;3.00;;;1.65;;
43118;SDS011;28729;49.838;8.650;2023-06-22T21:43:07;1.75;;;1.15;;
43118;SDS011;28729;49.838;8.650;2023-06-22T21:51:12;1.10;;;0.70;;
43118;SDS011;28729;49.838;8.650;2023-06-22T21:55:14;1.13;;;0.68;;
43118;SDS011;28729;49.838;8.650;2023-06-22T21:59:16;2.27;;;0.60;;
43118;SDS011;28729;49.838;8.650;2023-06-22T22:03:18;1.10;;;0.67;;
43118;SDS011;28729;49.838;8.650;2023-06-22T22:07:20;1.35;;;0.80;;
43118;SDS011;28729;49.838;8.650;2023-06-22T22:11:22;2.27;;;1.50;;
43118;SDS011;28729;49.838;8.650;2023-06-22T22:15:24;2.63;;;0.40;;
43118;SDS011;28729;49.838;8.650;2023-06-22T22:19:27;1.05;;;0.50;;
43118;SDS011;28729;49.838;8.650;2023-06-22T22:23:29;1.83;;;0.80;;
43118;SDS011;28729;49.838;8.650;2023-06-22T22:27:30;0.80;;;0.50;;
43118;SDS011;28729;49.838;8.650;2023-06-22T22:31:32;0.43;;;0.30;;
43118;SDS011;28729;49.838;8.650;2023-06-22T22:35:39;0.35;;;0.28;;
43118;SDS011;28729;49.838;8.650;2023-06-22T22:39:41;1.17;;;0.40;;
43118;SDS011;28729;49.838;8.650;2023-06-22T22:43:43;0.33;;;0.20;;
43118;SDS011;28729;49.838;8.650;2023-06-22T22:47:45;0.20;;;0.20;;
43118;SDS011;28729;49.838;8.650;2023-06-22T22:51:47;1.77;;;0.20;;
43118;SDS011;28729;49.838;8.650;2023-06-22T22:55:49;0.33;;;0.23;;
43118;SDS011;28729;49.838;8.650;2023-06-22T22:59:51;1.55;;;0.30;;
43118;SDS011;28729;49.838;8.650;2023-06-22T23:03:53;1.80;;;0.40;;
43118;SDS011;28729;49.838;8.650;2023-06-22T23:07:57;1.33;;;0.45;;
43118;SDS011;28729;49.838;8.650;2023-06-22T23:11:59;3.07;;;1.00;;
43118;SDS011;28729;49.838;8.650;2023-06-22T23:16:00;3.47;;;1.15;;
43118;SDS011;28729;49.838;8.650;2023-06-22T23:20:04;2.13;;;1.23;;
43118;SDS011;28729;49.838;8.650;2023-06-22T23:24:07;3.28;;;1.65;;
43118;SDS011;28729;49.838;8.650;2023-06-22T23:28:09;4.88;;;1.45;;
43118;SDS011;28729;49.838;8.650;2023-06-22T23:32:11;3.80;;;1.87;;
43118;SDS011;28729;49.838;8.650;2023-06-22T23:36:13;3.70;;;2.30;;
43118;SDS011;28729;49.838;8.650;2023-06-22T23:40:16;4.53;;;2.67;;
43118;SDS011;28729;49.838;8.650;2023-06-22T23:44:18;5.00;;;3.00;;
43118;SDS011;28729;49.838;8.650;2023-06-22T23:48:20;5.53;;;3.03;;
43118;SDS011;28729;49.838;8.650;2023-06-22T23:52:22;5.07;;;3.22;;
43118;SDS011;28729;49.838;8.650;2023-06-22T23:56:24;6.78;;;3.70;;
